createdAt,value
2022-07-25T00:01:01.241Z,96.32
2022-07-25T00:02:02.898Z,96.17
2022-07-25T00:03:05.209Z,95.74
2022-07-25T00:04:12.148Z,95.67
2022-07-25T00:05:14.061Z,95.88
2022-07-25T00:06:18.015Z,95.65
2022-07-25T00:07:19.575Z,95.96
2022-07-25T00:08:21.089Z,95.65
2022-07-25T00:09:22.573Z,95.26
2022-07-25T00:10:24.404Z,95.68
2022-07-25T00:11:25.896Z,96.09
2022-07-25T00:12:27.369Z,96.00
2022-07-25T00:13:28.852Z,95.75
2022-07-25T00:14:30.307Z,96.01
2022-07-25T00:15:31.931Z,96.19
2022-07-25T00:16:33.839Z,96.34
2022-07-25T00:17:35.372Z,96.56
2022-07-25T00:18:36.875Z,96.95
2022-07-25T00:19:39.497Z,96.92
2022-07-25T00:20:41.007Z,97.41
2022-07-25T00:21:42.546Z,97.23
2022-07-25T00:22:44.046Z,97.08
2022-07-25T00:23:45.574Z,97.18
2022-07-25T00:24:47.043Z,97.10
2022-07-25T00:25:48.539Z,96.69
2022-07-25T00:26:50.139Z,96.29
2022-07-25T00:27:51.986Z,96.54
2022-07-25T00:28:53.630Z,96.18
2022-07-25T00:29:55.197Z,96.06
2022-07-25T00:30:56.744Z,95.58
2022-07-25T00:31:58.318Z,95.61
2022-07-25T00:32:59.781Z,95.45
2022-07-25T00:34:01.691Z,95.83
2022-07-25T00:35:03.679Z,95.56
2022-07-25T00:36:06.009Z,95.46
2022-07-25T00:37:07.496Z,95.47
2022-07-25T00:38:08.970Z,95.37
2022-07-25T00:39:10.445Z,95.31
2022-07-25T00:40:12.306Z,95.16
2022-07-25T00:41:13.993Z,94.91
2022-07-25T00:42:15.515Z,94.82
2022-07-25T00:43:16.999Z,94.33
2022-07-25T00:44:25.701Z,93.74
2022-07-25T00:45:27.279Z,93.51
2022-07-25T00:46:28.866Z,93.51
2022-07-25T00:47:30.421Z,93.37
2022-07-25T00:48:31.991Z,93.78
2022-07-25T00:49:33.696Z,93.89
2022-07-25T00:50:36.092Z,93.75
2022-07-25T00:51:37.581Z,93.89
2022-07-25T00:52:39.130Z,93.58
2022-07-25T00:53:40.580Z,93.11
2022-07-25T00:54:42.141Z,93.31
2022-07-25T00:55:43.825Z,92.85
2022-07-25T00:56:45.696Z,92.83
2022-07-25T00:57:47.175Z,92.59
2022-07-25T00:58:48.656Z,92.23
2022-07-25T00:59:50.232Z,92.58
2022-07-25T01:00:51.730Z,92.49
2022-07-25T01:01:53.662Z,92.68
2022-07-25T01:02:55.539Z,93.01
2022-07-25T01:03:57.069Z,93.18
2022-07-25T01:04:59.607Z,93.37
2022-07-25T01:06:01.106Z,93.76
2022-07-25T01:07:02.852Z,93.54
2022-07-25T01:08:04.781Z,93.66
2022-07-25T01:09:07.433Z,93.88
2022-07-25T01:10:09.442Z,94.05
2022-07-25T01:11:11.232Z,94.16
2022-07-25T01:12:12.722Z,92.79
2022-07-25T01:13:15.322Z,92.87
2022-07-25T01:14:16.835Z,93.08
2022-07-25T01:15:19.744Z,95.68
2022-07-25T01:16:21.352Z,96.51
2022-07-25T01:17:23.022Z,96.65
2022-07-25T01:18:24.485Z,96.80
2022-07-25T01:19:25.985Z,96.47
2022-07-25T01:20:29.399Z,96.95
2022-07-25T01:21:30.892Z,97.29
2022-07-25T01:22:32.358Z,97.63
2022-07-25T01:23:33.865Z,97.46
2022-07-25T01:24:35.822Z,97.41
2022-07-25T01:25:37.348Z,97.07
2022-07-25T01:26:38.903Z,97.51
2022-07-25T01:27:41.834Z,97.86
2022-07-25T01:28:43.312Z,97.57
2022-07-25T01:29:44.794Z,97.50
2022-07-25T01:30:46.342Z,97.10
2022-07-25T01:31:48.077Z,96.67
2022-07-25T01:32:49.616Z,97.16
2022-07-25T01:33:51.120Z,96.89
2022-07-25T01:34:52.610Z,97.11
2022-07-25T01:35:54.106Z,96.66
2022-07-25T01:36:55.590Z,96.01
2022-07-25T01:37:57.150Z,96.30
2022-07-25T01:38:58.634Z,95.63
2022-07-25T01:40:00.407Z,95.41
2022-07-25T01:41:01.858Z,95.53
2022-07-25T01:42:03.510Z,95.95
2022-07-25T01:43:05.125Z,95.86
2022-07-25T01:44:06.866Z,96.55
2022-07-25T01:45:09.817Z,97.13
2022-07-25T01:46:11.382Z,96.79
2022-07-25T01:47:12.887Z,97.07
2022-07-25T01:48:14.420Z,97.36
2022-07-25T01:49:15.926Z,96.88
2022-07-25T01:50:17.695Z,96.90
2022-07-25T01:51:20.436Z,97.01
2022-07-25T01:52:22.059Z,96.97
2022-07-25T01:53:23.630Z,96.97
2022-07-25T01:54:26.216Z,97.48
2022-07-25T01:55:27.736Z,97.56
2022-07-25T01:56:31.816Z,97.32
2022-07-25T01:57:33.972Z,97.62
2022-07-25T01:58:37.665Z,98.12
2022-07-25T01:59:40.660Z,98.29
2022-07-25T02:00:42.413Z,98.45
2022-07-25T02:01:44.162Z,98.47
2022-07-25T02:02:46.252Z,98.61
2022-07-25T02:03:47.719Z,98.39
2022-07-25T02:04:49.281Z,98.97
2022-07-25T02:05:50.746Z,98.30
2022-07-25T02:06:52.201Z,98.42
2022-07-25T02:07:53.662Z,98.49
2022-07-25T02:08:55.203Z,98.88
2022-07-25T02:09:57.080Z,99.29
2022-07-25T02:10:59.500Z,99.61
2022-07-25T02:12:01.057Z,98.94
2022-07-25T02:13:02.593Z,98.81
2022-07-25T02:14:04.581Z,98.70
2022-07-25T02:15:06.973Z,98.58
2022-07-25T02:16:08.497Z,98.13
2022-07-25T02:17:10.056Z,98.24
2022-07-25T02:18:11.927Z,98.62
2022-07-25T02:19:13.631Z,98.94
2022-07-25T02:20:15.110Z,99.17
2022-07-25T02:21:16.622Z,99.32
2022-07-25T02:22:18.122Z,99.39
2022-07-25T02:23:19.616Z,99.26
2022-07-25T02:24:21.093Z,99.13
2022-07-25T02:25:22.610Z,99.20
2022-07-25T02:26:24.205Z,99.78
2022-07-25T02:27:25.675Z,100.00
2022-07-25T02:28:27.220Z,100.00
2022-07-25T02:29:28.722Z,100.00
2022-07-25T02:30:30.220Z,100.00
2022-07-25T02:31:31.745Z,100.00
2022-07-25T02:32:33.258Z,100.00
2022-07-25T02:33:35.075Z,100.00
2022-07-25T02:34:36.567Z,100.00
2022-07-25T02:35:38.081Z,100.00
2022-07-25T02:36:39.607Z,100.00
2022-07-25T02:37:41.317Z,100.00
2022-07-25T02:38:42.919Z,100.00
2022-07-25T02:39:44.435Z,100.00
2022-07-25T02:40:47.736Z,100.00
2022-07-25T02:41:49.215Z,100.00
2022-07-25T02:42:50.703Z,100.00
2022-07-25T02:43:52.189Z,99.99
2022-07-25T02:44:53.694Z,99.83
2022-07-25T02:45:55.247Z,99.88
2022-07-25T02:46:56.741Z,99.56
2022-07-25T02:47:58.240Z,99.58
2022-07-25T02:48:59.946Z,99.90
2022-07-25T02:50:01.489Z,99.49
2022-07-25T02:51:03.175Z,99.46
2022-07-25T02:52:04.964Z,100.00
2022-07-25T02:53:06.522Z,100.00
2022-07-25T02:54:08.017Z,99.88
2022-07-25T02:55:10.156Z,100.00
2022-07-25T02:56:11.781Z,99.81
2022-07-25T02:57:15.668Z,99.53
2022-07-25T02:58:17.139Z,99.34
2022-07-25T02:59:18.903Z,98.69
2022-07-25T03:00:20.399Z,98.32
2022-07-25T03:01:21.927Z,98.21
2022-07-25T03:02:23.443Z,98.13
2022-07-25T03:03:24.903Z,97.84
2022-07-25T03:04:27.089Z,97.58
2022-07-25T03:05:28.976Z,97.90
2022-07-25T03:06:30.469Z,98.14
2022-07-25T03:07:31.943Z,97.63
2022-07-25T03:08:33.446Z,97.94
2022-07-25T03:09:34.902Z,98.43
2022-07-25T03:10:36.451Z,98.57
2022-07-25T03:11:38.062Z,98.63
2022-07-25T03:12:40.785Z,98.98
2022-07-25T03:13:42.409Z,99.31
2022-07-25T03:14:44.096Z,99.51
2022-07-25T03:15:45.635Z,100.00
2022-07-25T03:16:47.173Z,100.00
2022-07-25T03:17:48.667Z,100.00
2022-07-25T03:18:50.189Z,100.00
2022-07-25T03:19:51.868Z,100.00
2022-07-25T03:20:53.465Z,100.00
2022-07-25T03:21:54.925Z,100.00
2022-07-25T03:22:56.373Z,100.00
2022-07-25T03:23:57.841Z,99.80
2022-07-25T03:24:59.635Z,99.79
2022-07-25T03:26:01.180Z,100.00
2022-07-25T03:27:02.706Z,100.00
2022-07-25T03:28:04.359Z,100.00
2022-07-25T03:29:06.021Z,100.00
2022-07-25T03:30:08.360Z,100.00
2022-07-25T03:31:09.881Z,100.00
2022-07-25T03:32:11.585Z,100.00
2022-07-25T03:33:13.130Z,100.00
2022-07-25T03:34:14.613Z,100.00
2022-07-25T03:35:16.189Z,100.00
2022-07-25T03:36:17.666Z,100.00
2022-07-25T03:37:19.127Z,100.00
2022-07-25T03:38:20.601Z,100.00
2022-07-25T03:39:22.292Z,100.00
2022-07-25T03:40:23.765Z,100.00
2022-07-25T03:41:27.784Z,100.00
2022-07-25T03:42:34.971Z,100.00
2022-07-25T03:43:37.405Z,100.00
2022-07-25T03:44:39.090Z,100.00
2022-07-25T03:45:40.663Z,100.00
2022-07-25T03:46:42.207Z,100.00
2022-07-25T03:47:43.679Z,100.00
2022-07-25T03:48:45.234Z,100.00
2022-07-25T03:49:46.804Z,100.00
2022-07-25T03:50:48.276Z,100.00
2022-07-25T03:51:50.158Z,100.00
2022-07-25T03:52:51.648Z,100.00
2022-07-25T03:53:53.120Z,100.00
2022-07-25T03:54:54.576Z,100.00
2022-07-25T03:55:56.058Z,100.00
2022-07-25T03:56:57.596Z,100.00
2022-07-25T03:57:59.102Z,100.00
2022-07-25T03:59:00.562Z,100.00
2022-07-25T04:00:02.522Z,100.00
2022-07-25T04:01:07.355Z,100.00
2022-07-25T04:02:12.243Z,100.00
2022-07-25T04:03:13.826Z,100.00
2022-07-25T04:04:15.360Z,100.00
2022-07-25T04:05:16.880Z,100.00
2022-07-25T04:06:18.467Z,100.00
2022-07-25T04:07:19.954Z,100.00
2022-07-25T04:08:21.422Z,100.00
2022-07-25T04:09:22.960Z,100.00
2022-07-25T04:10:24.493Z,100.00
2022-07-25T04:11:25.993Z,100.00
2022-07-25T04:12:27.711Z,100.00
2022-07-25T04:13:29.276Z,100.00
2022-07-25T04:14:30.796Z,99.93
2022-07-25T04:15:32.248Z,99.52
2022-07-25T04:16:35.335Z,99.34
2022-07-25T04:17:39.606Z,98.81
2022-07-25T04:18:42.121Z,98.48
2022-07-25T04:19:45.252Z,98.48
2022-07-25T04:20:46.709Z,98.90
2022-07-25T04:21:48.208Z,98.70
2022-07-25T04:22:49.660Z,98.36
2022-07-25T04:23:51.237Z,98.51
2022-07-25T04:24:52.747Z,99.11
2022-07-25T04:25:55.015Z,99.02
2022-07-25T04:26:56.551Z,98.65
2022-07-25T04:27:58.009Z,98.96
2022-07-25T04:28:59.658Z,99.50
2022-07-25T04:30:01.123Z,99.84
2022-07-25T04:31:02.591Z,99.84
2022-07-25T04:32:04.653Z,100.00
2022-07-25T04:33:06.291Z,100.00
2022-07-25T04:34:08.235Z,100.00
2022-07-25T04:35:09.990Z,100.00
2022-07-25T04:36:11.534Z,100.00
2022-07-25T04:37:13.001Z,100.00
2022-07-25T04:38:14.496Z,100.00
2022-07-25T04:39:15.943Z,100.00
2022-07-25T04:40:17.478Z,100.00
2022-07-25T04:41:19.344Z,100.00
2022-07-25T04:42:20.819Z,100.00
2022-07-25T04:43:22.409Z,100.00
2022-07-25T04:44:23.902Z,100.00
2022-07-25T04:45:25.582Z,100.00
2022-07-25T04:46:27.128Z,100.00
2022-07-25T04:47:28.588Z,100.00
2022-07-25T04:48:30.134Z,100.00
2022-07-25T04:49:31.665Z,100.00
2022-07-25T04:50:33.278Z,100.00
2022-07-25T04:51:34.732Z,100.00
2022-07-25T04:52:36.228Z,100.00
2022-07-25T04:53:37.693Z,100.00
2022-07-25T04:54:39.163Z,100.00
2022-07-25T04:55:40.666Z,100.00
2022-07-25T04:56:42.141Z,100.00
2022-07-25T04:57:43.663Z,100.00
2022-07-25T04:58:45.148Z,100.00
2022-07-25T04:59:46.691Z,100.00
2022-07-25T05:00:48.340Z,100.00
2022-07-25T05:01:49.919Z,100.00
2022-07-25T05:02:51.585Z,100.00
2022-07-25T05:03:53.024Z,99.53
2022-07-25T05:04:54.482Z,99.03
2022-07-25T05:05:55.971Z,98.36
2022-07-25T05:06:57.437Z,98.81
2022-07-25T05:07:59.803Z,98.94
2022-07-25T05:09:01.291Z,98.81
2022-07-25T05:10:04.342Z,98.32
2022-07-25T05:11:06.018Z,96.63
2022-07-25T05:12:07.802Z,93.37
2022-07-25T05:13:09.812Z,93.40
2022-07-25T05:14:11.285Z,92.95
2022-07-25T05:15:13.195Z,93.19
2022-07-25T05:16:14.709Z,95.25
2022-07-25T05:17:16.282Z,95.03
2022-07-25T05:18:17.782Z,96.06
2022-07-25T05:19:19.225Z,95.36
2022-07-25T05:20:20.941Z,95.58
2022-07-25T05:21:22.484Z,96.06
2022-07-25T05:22:28.526Z,96.42
2022-07-25T05:23:30.605Z,95.27
2022-07-25T05:24:36.520Z,96.51
2022-07-25T05:25:37.977Z,97.19
2022-07-25T05:26:39.489Z,98.01
2022-07-25T05:27:41.514Z,97.84
2022-07-25T05:28:42.982Z,98.98
2022-07-25T05:29:44.449Z,98.51
2022-07-25T05:30:45.924Z,97.62
2022-07-25T05:31:47.534Z,96.48
2022-07-25T05:32:49.035Z,96.86
2022-07-25T05:33:50.819Z,97.41
2022-07-25T05:34:52.314Z,95.57
2022-07-25T05:35:53.864Z,95.94
2022-07-25T05:36:55.329Z,96.93
2022-07-25T05:37:56.812Z,95.62
2022-07-25T05:38:58.672Z,95.30
2022-07-25T05:40:00.327Z,92.78
2022-07-25T05:41:01.787Z,91.67
2022-07-25T05:42:03.519Z,91.57
2022-07-25T05:43:04.968Z,90.77
2022-07-25T05:44:06.810Z,88.14
2022-07-25T05:45:08.930Z,88.70
2022-07-25T05:46:10.411Z,87.95
2022-07-25T05:47:12.386Z,86.68
2022-07-25T05:48:15.142Z,86.04
2022-07-25T05:49:16.700Z,85.90
2022-07-25T05:50:18.217Z,85.55
2022-07-25T05:51:19.670Z,85.11
2022-07-25T05:52:21.307Z,84.16
2022-07-25T05:53:22.844Z,82.95
2022-07-25T05:54:24.343Z,83.64
2022-07-25T05:55:29.026Z,81.52
2022-07-25T05:56:30.526Z,81.22
2022-07-25T05:57:31.996Z,80.42
2022-07-25T05:58:33.497Z,80.47
2022-07-25T05:59:35.031Z,79.26
2022-07-25T06:00:37.467Z,78.97
2022-07-25T06:01:39.012Z,78.13
2022-07-25T06:02:40.626Z,78.52
2022-07-25T06:03:42.366Z,78.53
2022-07-25T06:04:43.862Z,78.25
2022-07-25T06:05:46.397Z,79.17
2022-07-25T06:06:47.894Z,78.46
2022-07-25T06:07:49.386Z,77.41
2022-07-25T06:08:50.869Z,75.12
2022-07-25T06:09:53.244Z,75.03
2022-07-25T06:10:54.820Z,74.99
2022-07-25T06:12:00.272Z,74.76
2022-07-25T06:13:02.534Z,73.73
2022-07-25T06:14:04.313Z,71.81
2022-07-25T06:15:12.464Z,72.08
2022-07-25T06:16:24.184Z,71.64
2022-07-25T06:17:30.517Z,71.49
2022-07-25T06:18:34.165Z,71.85
2022-07-25T06:19:35.665Z,71.99
2022-07-25T06:20:37.154Z,71.64
2022-07-25T06:21:38.649Z,68.94
2022-07-25T06:22:40.855Z,67.60
2022-07-25T06:23:42.368Z,68.50
2022-07-25T06:24:43.817Z,68.39
2022-07-25T06:25:50.299Z,68.21
2022-07-25T06:26:52.148Z,67.41
2022-07-25T06:27:53.651Z,66.86
2022-07-25T06:28:55.256Z,66.83
2022-07-25T06:29:56.728Z,66.99
2022-07-25T06:30:58.253Z,67.00
2022-07-25T06:31:59.965Z,67.49
2022-07-25T06:33:01.506Z,67.37
2022-07-25T06:34:03.291Z,65.58
2022-07-25T06:35:05.363Z,65.54
2022-07-25T06:36:07.220Z,65.78
2022-07-25T06:37:08.685Z,65.48
2022-07-25T06:38:10.267Z,65.88
2022-07-25T06:39:11.756Z,66.43
2022-07-25T06:40:13.461Z,64.51
2022-07-25T06:41:15.315Z,65.06
2022-07-25T06:42:16.925Z,64.02
2022-07-25T06:43:18.484Z,64.09
2022-07-25T06:44:19.982Z,64.26
2022-07-25T06:45:21.780Z,64.51
2022-07-25T06:46:23.346Z,63.33
2022-07-25T06:47:24.906Z,63.43
2022-07-25T06:48:26.434Z,63.69
2022-07-25T06:49:28.149Z,63.55
2022-07-25T06:50:29.768Z,63.26
2022-07-25T06:51:31.277Z,62.32
2022-07-25T06:52:32.779Z,61.97
2022-07-25T06:53:34.254Z,61.54
2022-07-25T06:54:35.764Z,61.19
2022-07-25T06:55:37.413Z,61.05
2022-07-25T06:56:38.891Z,60.26
2022-07-25T06:57:41.725Z,61.55
2022-07-25T06:58:43.183Z,60.82
2022-07-25T06:59:44.700Z,60.64
2022-07-25T07:00:46.689Z,60.61
2022-07-25T07:01:51.429Z,60.87
2022-07-25T07:02:56.375Z,61.28
2022-07-25T07:03:59.614Z,60.64
2022-07-25T07:05:01.126Z,61.86
2022-07-25T07:06:02.591Z,64.14
2022-07-25T07:07:04.294Z,64.82
2022-07-25T07:08:06.034Z,64.02
2022-07-25T07:09:07.608Z,63.50
2022-07-25T07:10:09.359Z,62.57
2022-07-25T07:11:10.892Z,62.40
2022-07-25T07:12:12.389Z,60.58
2022-07-25T07:13:14.872Z,59.87
2022-07-25T07:14:16.419Z,60.26
2022-07-25T07:15:17.870Z,59.00
2022-07-25T07:16:19.377Z,58.85
2022-07-25T07:17:20.954Z,56.93
2022-07-25T07:18:22.637Z,55.26
2022-07-25T07:19:24.087Z,53.60
2022-07-25T07:20:25.790Z,53.91
2022-07-25T07:21:27.280Z,54.19
2022-07-25T07:22:30.741Z,54.06
2022-07-25T07:23:32.210Z,54.60
2022-07-25T07:24:35.083Z,54.58
2022-07-25T07:25:40.528Z,54.71
2022-07-25T07:26:44.836Z,53.73
2022-07-25T07:27:46.860Z,53.52
2022-07-25T07:28:48.342Z,53.95
2022-07-25T07:29:50.577Z,54.45
2022-07-25T07:31:15.790Z,55.00
2022-07-25T07:32:14.021Z,54.71
2022-07-25T07:33:15.597Z,53.24
2022-07-25T07:34:17.133Z,53.84
2022-07-25T07:35:18.727Z,53.31
2022-07-25T07:36:21.565Z,54.25
2022-07-25T07:37:23.029Z,53.79
2022-07-25T07:38:25.225Z,52.79
2022-07-25T07:39:26.696Z,52.71
2022-07-25T07:40:28.242Z,53.54
2022-07-25T07:41:29.725Z,52.91
2022-07-25T07:42:38.947Z,55.47
2022-07-25T07:43:40.765Z,54.04
2022-07-25T07:44:42.233Z,53.81
2022-07-25T07:45:44.242Z,52.72
2022-07-25T07:46:45.809Z,52.89
2022-07-25T07:47:48.994Z,51.60
2022-07-25T07:48:50.486Z,51.74
2022-07-25T07:49:52.023Z,52.33
2022-07-25T07:50:53.555Z,53.18
2022-07-25T07:51:55.079Z,53.86
2022-07-25T07:52:57.074Z,53.26
2022-07-25T07:53:58.648Z,52.97
2022-07-25T07:55:00.138Z,52.30
2022-07-25T07:56:01.963Z,52.02
2022-07-25T07:57:03.475Z,52.28
2022-07-25T07:58:05.371Z,53.06
2022-07-25T07:59:07.228Z,52.43
2022-07-25T08:00:13.510Z,51.13
2022-07-25T08:01:17.829Z,50.05
2022-07-25T08:02:19.463Z,50.27
2022-07-25T08:03:21.594Z,52.65
2022-07-25T08:04:23.107Z,53.18
2022-07-25T08:05:27.161Z,52.39
2022-07-25T08:06:28.633Z,51.30
2022-07-25T08:07:30.156Z,52.10
2022-07-25T08:08:31.865Z,53.40
2022-07-25T08:09:33.372Z,53.32
2022-07-25T08:10:37.693Z,53.49
2022-07-25T08:11:39.226Z,52.39
2022-07-25T08:12:41.545Z,51.84
2022-07-25T08:13:43.054Z,51.96
2022-07-25T08:14:44.560Z,51.71
2022-07-25T08:15:48.796Z,51.25
2022-07-25T08:16:50.303Z,49.50
2022-07-25T08:17:52.782Z,48.93
2022-07-25T08:18:54.274Z,50.35
2022-07-25T08:20:02.019Z,50.80
2022-07-25T08:21:10.900Z,47.38
2022-07-25T08:22:12.415Z,46.54
2022-07-25T08:23:14.333Z,47.87
2022-07-25T08:24:15.825Z,47.62
2022-07-25T08:25:20.120Z,48.17
2022-07-25T08:26:21.642Z,46.29
2022-07-25T08:27:23.195Z,47.04
2022-07-25T08:28:24.698Z,47.49
2022-07-25T08:29:28.205Z,46.49
2022-07-25T08:30:29.931Z,47.18
2022-07-25T08:31:31.570Z,47.40
2022-07-25T08:32:33.600Z,46.27
2022-07-25T08:33:35.063Z,44.82
2022-07-25T08:34:36.515Z,45.03
2022-07-25T08:35:38.044Z,46.00
2022-07-25T08:36:39.492Z,45.71
2022-07-25T08:37:40.988Z,45.47
2022-07-25T08:38:42.489Z,46.39
2022-07-25T08:39:43.982Z,46.49
2022-07-25T08:40:45.855Z,45.93
2022-07-25T08:41:47.439Z,44.71
2022-07-25T08:42:49.511Z,46.69
2022-07-25T08:43:51.934Z,45.96
2022-07-25T08:44:59.786Z,44.88
2022-07-25T08:46:02.489Z,44.72
2022-07-25T08:47:04.742Z,45.93
2022-07-25T08:48:11.368Z,45.92
2022-07-25T08:49:12.999Z,44.77
2022-07-25T08:50:17.020Z,42.98
2022-07-25T08:51:18.939Z,44.24
2022-07-25T08:52:20.971Z,43.61
2022-07-25T08:53:38.146Z,45.16
2022-07-25T08:54:40.301Z,45.03
2022-07-25T08:55:41.903Z,44.88
2022-07-25T08:56:43.360Z,45.26
2022-07-25T08:57:45.070Z,44.79
2022-07-25T08:58:46.648Z,44.71
2022-07-25T08:59:48.128Z,44.51
2022-07-25T09:00:49.705Z,44.07
2022-07-25T09:01:51.259Z,43.97
2022-07-25T09:03:03.663Z,44.59
2022-07-25T09:04:08.570Z,44.86
2022-07-25T09:05:10.278Z,43.52
2022-07-25T09:06:20.293Z,43.41
2022-07-25T09:07:40.892Z,42.86
2022-07-25T09:08:52.738Z,41.98
2022-07-25T09:09:54.179Z,41.49
2022-07-25T09:10:55.732Z,41.39
2022-07-25T09:11:57.307Z,42.27
2022-07-25T09:13:07.882Z,42.20
2022-07-25T09:14:12.930Z,42.19
2022-07-25T09:15:30.512Z,41.95
2022-07-25T09:16:40.927Z,43.20
2022-07-25T09:17:50.618Z,42.23
2022-07-25T09:18:52.079Z,43.29
2022-07-25T09:19:56.569Z,42.45
2022-07-25T09:20:59.709Z,42.54
2022-07-25T09:22:06.991Z,43.09
2022-07-25T09:23:13.725Z,42.79
2022-07-25T09:24:17.345Z,42.96
2022-07-25T09:25:27.219Z,43.24
2022-07-25T09:26:28.734Z,42.21
2022-07-25T09:27:33.133Z,41.75
2022-07-25T09:28:41.339Z,42.39
2022-07-25T09:29:43.259Z,42.78
2022-07-25T09:30:59.553Z,41.47
2022-07-25T09:32:13.198Z,42.62
2022-07-25T09:33:14.705Z,41.53
2022-07-25T09:34:38.330Z,41.72
2022-07-25T09:35:39.792Z,41.62
2022-07-25T09:36:55.070Z,40.91
2022-07-25T09:38:07.585Z,41.03
2022-07-25T09:39:09.069Z,41.10
2022-07-25T09:40:14.612Z,41.97
2022-07-25T09:41:16.174Z,42.31
2022-07-25T09:42:18.971Z,42.78
2022-07-25T09:43:20.556Z,41.25
2022-07-25T09:44:22.320Z,41.05
2022-07-25T09:45:26.069Z,39.86
2022-07-25T09:46:32.403Z,40.60
2022-07-25T09:47:36.522Z,41.30
2022-07-25T09:48:40.234Z,39.96
2022-07-25T09:49:45.491Z,40.00
2022-07-25T09:50:47.427Z,40.88
2022-07-25T09:51:49.020Z,40.64
2022-07-25T09:52:53.186Z,40.40
2022-07-25T09:53:55.060Z,40.51
2022-07-25T09:54:56.575Z,41.23
2022-07-25T09:55:58.192Z,41.06
2022-07-25T09:56:59.754Z,40.56
2022-07-25T09:58:01.261Z,40.01
2022-07-25T09:59:04.040Z,39.81
2022-07-25T10:00:07.562Z,39.99
2022-07-25T10:01:20.302Z,40.40
2022-07-25T10:02:39.323Z,38.73
2022-07-25T10:04:20.952Z,39.29
2022-07-25T10:05:38.154Z,40.13
2022-07-25T10:06:49.119Z,39.43
2022-07-25T10:07:54.078Z,38.78
2022-07-25T10:08:56.630Z,39.12
2022-07-25T10:09:59.654Z,39.33
2022-07-25T10:11:01.165Z,39.59
2022-07-25T10:12:08.401Z,39.19
2022-07-25T10:13:14.713Z,40.40
2022-07-25T10:14:16.330Z,41.01
2022-07-25T10:15:17.871Z,42.02
2022-07-25T10:16:25.054Z,39.42
2022-07-25T10:17:26.631Z,40.49
2022-07-25T10:18:29.875Z,39.71
2022-07-25T10:19:44.794Z,39.42
2022-07-25T10:20:54.654Z,40.08
2022-07-25T10:21:56.136Z,39.71
2022-07-25T10:22:58.350Z,39.16
2022-07-25T10:24:03.605Z,38.79
2022-07-25T10:25:12.181Z,38.91
2022-07-25T10:26:15.675Z,39.22
2022-07-25T10:27:24.617Z,39.93
2022-07-25T10:28:36.694Z,38.83
2022-07-25T10:29:40.006Z,38.49
2022-07-25T10:30:42.536Z,39.76
2022-07-25T10:31:49.927Z,39.08
2022-07-25T10:32:58.001Z,39.72
2022-07-25T10:34:02.963Z,40.34
2022-07-25T10:35:17.312Z,40.30
2022-07-25T10:36:20.040Z,38.91
2022-07-25T10:37:27.746Z,38.95
2022-07-25T10:38:29.203Z,39.15
2022-07-25T10:39:38.177Z,39.51
2022-07-25T10:40:42.621Z,39.06
2022-07-25T10:41:51.698Z,38.85
2022-07-25T10:43:05.920Z,38.29
2022-07-25T10:44:15.598Z,37.21
2022-07-25T10:45:17.986Z,37.66
2022-07-25T10:46:20.995Z,37.55
2022-07-25T10:47:26.068Z,38.16
2022-07-25T10:48:30.958Z,37.74
2022-07-25T10:49:37.445Z,37.70
2022-07-25T10:51:00.157Z,37.08
2022-07-25T10:52:03.853Z,38.10
2022-07-25T10:53:05.335Z,37.82
2022-07-25T10:54:17.482Z,37.83
2022-07-25T10:55:23.156Z,37.96
2022-07-25T10:56:28.433Z,37.67
2022-07-25T10:57:32.137Z,37.87
2022-07-25T10:58:47.887Z,37.61
2022-07-25T10:59:49.517Z,38.29
2022-07-25T11:00:51.208Z,38.13
2022-07-25T11:01:53.621Z,37.37
2022-07-25T11:02:58.030Z,38.22
2022-07-25T11:04:04.325Z,39.15
2022-07-25T11:05:06.300Z,39.04
2022-07-25T11:06:07.870Z,38.21
2022-07-25T11:07:13.731Z,38.88
2022-07-25T11:08:22.893Z,38.38
2022-07-25T11:09:28.507Z,38.28
2022-07-25T11:10:30.218Z,38.71
2022-07-25T11:11:39.885Z,38.13
2022-07-25T11:12:44.873Z,38.11
2022-07-25T11:13:46.408Z,39.18
2022-07-25T11:14:47.920Z,40.09
2022-07-25T11:15:49.880Z,40.76
2022-07-25T11:16:53.528Z,39.63
2022-07-25T11:17:55.053Z,39.27
2022-07-25T11:18:56.637Z,39.47
2022-07-25T11:19:59.875Z,39.65
2022-07-25T11:21:06.291Z,39.68
2022-07-25T11:22:08.942Z,40.12
2022-07-25T11:23:10.437Z,39.44
2022-07-25T11:24:12.033Z,38.25
2022-07-25T11:25:13.985Z,38.32
2022-07-25T11:26:15.484Z,38.85
2022-07-25T11:27:28.077Z,40.25
2022-07-25T11:29:01.778Z,38.85
2022-07-25T11:30:11.775Z,38.09
2022-07-25T11:31:15.072Z,37.10
2022-07-25T11:32:16.880Z,37.59
2022-07-25T11:33:18.588Z,37.90
2022-07-25T11:34:23.368Z,38.51
2022-07-25T11:35:27.645Z,38.69
2022-07-25T11:36:29.862Z,37.53
2022-07-25T11:37:35.452Z,36.97
2022-07-25T11:38:38.821Z,36.84
2022-07-25T11:39:42.816Z,36.65
2022-07-25T11:40:44.447Z,37.25
2022-07-25T11:41:46.072Z,37.60
2022-07-25T11:42:51.050Z,38.38
2022-07-25T11:43:52.509Z,38.16
2022-07-25T11:44:54.248Z,37.66
2022-07-25T11:46:05.050Z,37.62
2022-07-25T11:47:09.928Z,38.61
2022-07-25T11:48:13.480Z,37.82
2022-07-25T11:49:15.160Z,37.04
2022-07-25T11:50:16.917Z,37.06
2022-07-25T11:51:19.546Z,37.40
2022-07-25T11:52:28.718Z,37.49
2022-07-25T11:53:39.681Z,36.85
2022-07-25T11:54:52.568Z,37.90
2022-07-25T11:55:54.226Z,37.96
2022-07-25T11:56:55.715Z,37.24
2022-07-25T11:58:01.477Z,36.73
2022-07-25T11:59:03.117Z,37.86
2022-07-25T12:00:10.453Z,38.33
2022-07-25T12:01:14.436Z,38.36
2022-07-25T12:02:29.744Z,38.20
2022-07-25T12:03:37.917Z,40.19
2022-07-25T12:04:39.471Z,39.38
2022-07-25T12:05:41.379Z,39.66
2022-07-25T12:06:45.928Z,38.58
2022-07-25T12:07:52.737Z,38.10
2022-07-25T12:08:54.251Z,38.65
2022-07-25T12:09:57.216Z,39.10
2022-07-25T12:10:58.719Z,38.80
2022-07-25T12:12:04.186Z,38.83
2022-07-25T12:13:06.698Z,37.80
2022-07-25T12:14:08.512Z,37.22
2022-07-25T12:15:11.714Z,37.66
2022-07-25T12:16:13.424Z,37.90
2022-07-25T12:17:15.265Z,37.10
2022-07-25T12:18:16.792Z,37.41
2022-07-25T12:19:20.412Z,37.72
2022-07-25T12:20:28.451Z,37.50
2022-07-25T12:21:29.990Z,38.25
2022-07-25T12:22:31.579Z,38.36
2022-07-25T12:23:33.398Z,37.54
2022-07-25T12:24:34.860Z,38.80
2022-07-25T12:25:38.759Z,38.96
2022-07-25T12:26:40.306Z,38.65
2022-07-25T12:27:42.136Z,39.16
2022-07-25T12:28:43.784Z,38.00
2022-07-25T12:29:45.302Z,38.29
2022-07-25T12:30:50.554Z,39.39
2022-07-25T12:31:55.943Z,39.96
2022-07-25T12:32:58.734Z,40.24
2022-07-25T12:34:00.231Z,40.04
2022-07-25T12:35:02.386Z,39.78
2022-07-25T12:36:08.448Z,39.54
2022-07-25T12:37:10.230Z,40.28
2022-07-25T12:38:12.009Z,40.88
2022-07-25T12:39:13.525Z,40.32
2022-07-25T12:40:16.126Z,39.11
2022-07-25T12:41:18.195Z,39.23
2022-07-25T12:42:20.263Z,38.53
2022-07-25T12:43:22.191Z,39.23
2022-07-25T12:44:23.746Z,40.23
2022-07-25T12:45:25.990Z,39.78
2022-07-25T12:46:27.546Z,39.36
2022-07-25T12:47:29.125Z,39.72
2022-07-25T12:48:30.631Z,38.12
2022-07-25T12:49:32.193Z,38.40
2022-07-25T12:50:33.640Z,38.97
2022-07-25T12:51:35.167Z,39.78
2022-07-25T12:52:37.037Z,39.12
2022-07-25T12:53:42.179Z,39.45
2022-07-25T12:54:44.338Z,39.45
2022-07-25T12:55:45.867Z,39.45
2022-07-25T12:56:47.501Z,38.61
2022-07-25T12:57:49.527Z,38.69
2022-07-25T12:58:51.034Z,38.30
2022-07-25T12:59:52.561Z,39.16
2022-07-25T13:00:58.079Z,38.91
2022-07-25T13:02:02.684Z,38.76
2022-07-25T13:03:04.340Z,38.98
2022-07-25T13:04:05.888Z,38.66
2022-07-25T13:05:07.838Z,38.71
2022-07-25T13:06:09.345Z,38.92
2022-07-25T13:07:12.466Z,38.71
2022-07-25T13:08:13.999Z,39.31
2022-07-25T13:09:15.533Z,39.54
2022-07-25T13:10:17.970Z,40.10
2022-07-25T13:11:19.477Z,39.33
2022-07-25T13:12:21.200Z,39.02
2022-07-25T13:13:22.823Z,40.15
2022-07-25T13:14:25.539Z,39.31
2022-07-25T13:15:27.034Z,39.36
2022-07-25T13:16:28.782Z,39.31
2022-07-25T13:17:32.345Z,40.04
2022-07-25T13:18:33.903Z,39.78
2022-07-25T13:19:35.445Z,40.46
2022-07-25T13:20:36.929Z,39.79
2022-07-25T13:21:38.714Z,38.56
2022-07-25T13:22:40.220Z,39.09
2022-07-25T13:23:42.004Z,40.88
2022-07-25T13:24:43.573Z,40.09
2022-07-25T13:25:45.100Z,39.90
2022-07-25T13:26:46.697Z,39.49
2022-07-25T13:27:48.585Z,38.50